Latest Coastal Weather Observations for Mardie

IDW60701

Issued at 1:33 am WST Thursday 3 September 2026 (issued every 10 minutes, with the page automatically refreshed every 10 minutes)

About coastal observations | Map of coastal stations | Coastal observations for WA | Marine services | Other Formats
Station Details ID: 005008 Name: MARDIE Lat: -21.19 Lon: 115.98 Height: 11.0 m
Data from the previous 72 hours. | See also: Recent months at Mardie
Date/Time
WST
Wind Sea
Height
m
Swell Vis
km
Cloud Weather Temp
°C
Press
MSL
hPa
Rain since
9am
mm
Dir  Spd
kts
Gust
kts
Height
m
Period
s
Dir
03/01:30am WSW 3 3 - - - - - - - 17.9 1015.1 0.0
03/01:00am WNW 2 3 - - - - - - - 20.0 1015.2 0.0
03/12:30am WNW 2 3 - - - - - - - 20.3 1015.5 0.0
03/12:00am WNW 4 4 - - - - - - - 21.3 1015.8 0.0
 
Date/Time
WST
Wind Sea
Height
m
Swell Vis
km
Cloud Weather Temp
°C
Press
MSL
hPa
Rain since
9am
mm
Dir  Spd
kts
Gust
kts
Height
m
Period
s
Dir
02/11:30pm WSW 2 3 - - - - - - - 20.8 1015.9 0.0
02/11:00pm CALM 0 0 - - - - - - - 20.8 1016.1 0.0
02/10:30pm WSW 2 3 - - - - - - - 21.3 1016.4 0.0
02/10:00pm W 3 3 - - - - - - - 21.6 1016.4 0.0
02/09:30pm W 3 4 - - - - - - - 22.1 1016.4 0.0
02/09:00pm W 4 5 - - - - - - - 22.5 1016.3 0.0
02/08:30pm W 4 5 - - - - - - - 22.9 1016.0 0.0
02/08:00pm W 5 8 - - - - - - - 23.4 1015.9 0.0
02/07:30pm W 7 9 - - - - - - - 23.7 1015.7 0.0
02/07:00pm W 7 9 - - - - - - - 24.1 1015.3 0.0
02/06:30pm W 9 11 - - - - - - - 24.8 1015.1 0.0
02/06:00pm WNW 9 13 - - - - - - - 25.8 1014.8 0.0
02/05:30pm WNW 10 13 - - - - - - - 27.1 1014.7 0.0
02/05:00pm WNW 11 14 - - - - - - - 28.6 1014.3 0.0
02/04:30pm WNW 12 15 - - - - - - - 29.8 1014.1 0.0
02/04:00pm WNW 12 15 - - - - - - - 30.2 1014.1 0.0
02/03:30pm WNW 14 18 - - - - - - - 30.0 1014.1 0.0
02/03:00pm WNW 14 17 - - - - - - - 29.9 1014.3 0.0
02/02:30pm WNW 12 16 - - - - - - - 32.0 1014.4 0.0
02/02:00pm WNW 12 15 - - - - - - - 32.2 1014.7 0.0
02/01:30pm WNW 10 13 - - - - - - - 32.4 1015.0 0.0
02/01:00pm WNW 11 13 - - - - - - - 32.0 1015.4 0.0
02/12:30pm WNW 11 13 - - - - - - - 32.0 1015.7 0.0
02/12:00pm W 8 12 - - - - - - - 32.4 1016.1 0.0
02/11:30am WSW 7 12 - - - - - - - 32.7 1016.4 0.0
02/11:00am SW 6 10 - - - - - - - 31.9 1016.8 0.0
02/10:30am SW 6 9 - - - - - - - 30.9 1017.0 0.0
02/10:00am SSW 5 8 - - - - - - - 29.2 1017.5 0.0
02/09:30am S 6 8 - - - - - - - 27.1 1017.8 0.0
02/09:00am SSW 6 8 - - - - - - - 25.2 1017.9 0.0
02/08:30am SSW 6 8 - - - - - - - 23.2 1017.9 0.0
02/08:00am SW 8 11 - - - - - - - 22.0 1017.9 0.0
02/07:30am SW 8 12 - - - - - - - 21.1 1017.8 0.0
02/07:00am SW 5 7 - - - - - - - 19.1 1017.8 0.0
02/06:30am WSW 5 6 - - - - - - - 17.0 1017.5 0.0
02/06:00am WSW 6 7 - - - - - - - 16.8 1017.3 0.0
02/05:30am WSW 5 6 - - - - - - - 17.0 1017.3 0.0
02/05:00am SW 3 3 - - - - - - - 17.4 1017.1 0.0
02/04:30am SW 3 4 - - - - - - - 17.6 1017.0 0.0
02/04:00am SW 3 4 - - - - - - - 17.9 1017.1 0.0
02/03:30am SW 4 4 - - - - - - - 18.5 1017.2 0.0
02/03:00am SW 4 4 - - - - - - - 18.6 1017.3 0.0
02/02:30am SW 5 5 - - - - - - - 18.7 1017.3 0.0
02/02:00am SW 5 5 - - - - - - - 19.0 1017.5 0.0
02/01:30am WSW 3 3 - - - - - - - 19.4 1017.6 0.0
02/01:00am WSW 3 4 - - - - - - - 19.6 1017.9 0.0
02/12:30am WSW 2 3 - - - - - - - 19.5 1018.0 0.0
02/12:00am WSW 2 3 - - - - - - - 20.3 1018.3 0.0
 
Date/Time
WST
Wind Sea
Height
m
Swell Vis
km
Cloud Weather Temp
°C
Press
MSL
hPa
Rain since
9am
mm
Dir  Spd
kts
Gust
kts
Height
m
Period
s
Dir
01/11:30pm WSW 3 4 - - - - - - - 20.8 1018.4 0.0
01/11:00pm WSW 3 4 - - - - - - - 21.3 1018.4 0.0
01/10:30pm SW 4 5 - - - - - - - 21.7 1018.3 0.0
01/10:00pm SW 6 8 - - - - - - - 22.3 1018.3 0.0
01/09:30pm WSW 5 7 - - - - - - - 22.2 1018.3 0.0
01/09:00pm WSW 6 7 - - - - - - - 22.8 1018.3 0.0
01/08:30pm WSW 7 8 - - - - - - - 23.1 1018.1 0.0
01/08:00pm WSW 8 11 - - - - - - - 23.6 1017.8 0.0
01/07:30pm WSW 7 10 - - - - - - - 23.8 1017.4 0.0
01/07:00pm WSW 8 10 - - - - - - - 24.2 1017.0 0.0
01/06:30pm WSW 9 13 - - - - - - - 24.8 1016.8 0.0
01/06:00pm W 10 13 - - - - - - - 26.1 1016.6 0.0
01/05:30pm W 9 13 - - - - - - - 27.7 1016.4 0.0
01/05:00pm WNW 12 15 - - - - - - - 28.6 1016.2 0.0
01/04:30pm WNW 12 14 - - - - - - - 29.8 1016.0 0.0
01/04:00pm W 13 15 - - - - - - - 30.6 1015.9 0.0
01/03:30pm WNW 13 16 - - - - - - - 31.3 1015.8 0.0
01/03:00pm WNW 12 15 - - - - - - - 31.7 1015.9 0.0
01/02:30pm W 12 15 - - - - - - - 32.2 1016.1 0.0
01/02:00pm WNW 11 13 - - - - - - - 32.1 1016.3 0.0
01/01:30pm W 11 15 - - - - - - - 32.6 1016.6 0.0
01/01:00pm WNW 12 15 - - - - - - - 32.5 1016.7 0.0
01/12:30pm WNW 10 13 - - - - - - - 32.8 1017.0 0.0
01/12:00pm WNW 9 13 - - - - - - - 32.0 1017.4 0.0
01/11:30am SSE 3 8 - - - - - - - 31.9 1017.7 0.0
01/11:00am SSW 4 7 - - - - - - - 31.4 1018.2 0.0
01/10:30am SSW 2 5 - - - - - - - 30.4 1018.6 0.0
01/10:00am S 4 6 - - - - - - - 29.1 1018.9 0.0
01/09:30am S 4 6 - - - - - - - 27.5 1019.1 0.0
01/09:00am S 5 6 - - - - - - - 25.3 1019.2 0.0
01/08:30am SSW 6 8 - - - - - - - 23.4 1019.3 0.0
01/08:00am SSW 5 7 - - - - - - - 21.4 1019.4 0.0
01/07:30am SW 5 7 - - - - - - - 19.4 1019.3 0.0
01/07:00am SW 5 5 - - - - - - - 16.8 1019.0 0.0
01/06:30am SSW 5 5 - - - - - - - 15.8 1018.9 0.0
01/06:00am SSW 4 4 - - - - - - - 15.8 1018.7 0.0
01/05:30am SSW 4 4 - - - - - - - 15.9 1018.6 0.0
01/05:00am SSW 4 5 - - - - - - - 16.4 1018.4 0.0
01/04:30am SW 4 5 - - - - - - - 17.1 1018.4 0.0
01/04:00am SW 4 5 - - - - - - - 17.7 1018.3 0.0
01/03:30am SW 5 6 - - - - - - - 18.5 1018.4 0.0
01/03:00am SW 6 7 - - - - - - - 19.4 1018.6 0.0
01/02:30am SW 5 6 - - - - - - - 19.3 1018.7 0.0
01/02:00am SW 5 6 - - - - - - - 19.6 1018.9 0.0
01/01:30am SW 5 5 - - - - - - - 19.9 1019.1 0.0
01/01:00am SW 5 5 - - - - - - - 20.3 1019.3 0.0
01/12:30am SW 5 6 - - - - - - - 21.0 1019.5 0.0
01/12:00am SW 5 6 - - - - - - - 21.5 1019.6 0.0
 
Date/Time
WST
Wind Sea
Height
m
Swell Vis
km
Cloud Weather Temp
°C
Press
MSL
hPa
Rain since
9am
mm
Dir  Spd
kts
Gust
kts
Height
m
Period
s
Dir
31/11:30pm SW 4 5 - - - - - - - 21.3 1019.8 0.0
31/11:00pm WSW 4 5 - - - - - - - 21.4 1019.9 0.0
31/10:30pm WSW 5 6 - - - - - - - 21.7 1019.9 0.0
31/10:00pm W 5 6 - - - - - - - 21.8 1019.9 0.0
31/09:30pm WSW 4 5 - - - - - - - 22.3 1020.0 0.0
31/09:00pm WSW 4 6 - - - - - - - 22.7 1019.8 0.0
31/08:30pm WSW 6 7 - - - - - - - 23.1 1019.7 0.0
31/08:00pm WSW 8 12 - - - - - - - 23.3 1019.3 0.0
31/07:30pm WSW 9 11 - - - - - - - 23.6 1019.1 0.0
31/07:00pm WSW 8 11 - - - - - - - 24.1 1018.8 0.0
31/06:30pm W 9 13 - - - - - - - 24.6 1018.4 0.0
31/06:00pm W 11 13 - - - - - - - 25.7 1017.9 0.0
31/05:30pm W 12 16 - - - - - - - 27.1 1017.6 0.0
31/05:00pm W 13 17 - - - - - - - 28.5 1017.5 0.0
31/04:30pm W 11 15 - - - - - - - 29.6 1017.3 0.0
31/04:00pm W 13 16 - - - - - - - 29.6 1017.3 0.0
31/03:30pm W 12 16 - - - - - - - 30.3 1017.3 0.0
31/03:00pm WNW 12 15 - - - - - - - 30.8 1017.5 0.0
31/02:30pm W 12 14 - - - - - - - 31.0 1017.5 0.0
31/02:00pm WNW 11 14 - - - - - - - 30.8 1017.7 0.0
31/01:30pm WNW 11 14 - - - - - - - 31.0 1017.9 0.0
31/01:00pm WNW 9 12 - - - - - - - 31.3 1018.0 0.0
31/12:30pm W 9 13 - - - - - - - 31.1 1018.4 0.0
31/12:00pm W 9 13 - - - - - - - 31.3 1018.6 0.0
31/11:30am W 7 11 - - - - - - - 31.1 1018.9 0.0
31/11:00am WSW 6 9 - - - - - - - 30.3 1019.1 0.0
31/10:30am S 4 8 - - - - - - - 29.8 1019.4 0.0
31/10:00am SSW 6 10 - - - - - - - 28.9 1019.8 0.0
31/09:30am SSW 7 11 - - - - - - - 28.0 1019.7 0.0
31/09:00am S 7 10 - - - - - - - 27.1 1019.6 0.0
31/08:30am SSE 5 7 - - - - - - - 25.2 1019.5 0.0
31/08:00am SSE 4 5 - - - - - - - 22.9 1019.3 0.0
31/07:30am SSE 4 5 - - - - - - - 20.6 1019.0 0.0
31/07:00am SSE 4 4 - - - - - - - 17.6 1018.8 0.0
31/06:30am SSE 5 5 - - - - - - - 16.7 1018.5 0.0
31/06:00am SSE 5 5 - - - - - - - 16.9 1018.3 0.0
31/05:30am SSE 5 5 - - - - - - - 16.9 1018.2 0.0
31/05:00am SSE 5 6 - - - - - - - 17.1 1018.0 0.0
31/04:30am SSE 5 5 - - - - - - - 17.4 1018.0 0.0
31/04:00am SSE 5 6 - - - - - - - 17.3 1017.9 0.0
31/03:30am SSE 5 5 - - - - - - - 17.3 1018.0 0.0
31/03:00am SW 4 4 - - - - - - - 17.5 1018.2 0.0
31/02:30am W 3 4 - - - - - - - 17.8 1018.3 0.0
31/02:00am W 3 3 - - - - - - - 18.2 1018.5 0.0

Other formats

Comma delimited format used in spreadsheet applications
http://www.bom.gov.au/fwo/IDW60701/IDW60701.94306.axf

JavaScript Object Notation format (JSON) in row-major order
http://www.bom.gov.au/fwo/IDW60701/IDW60701.94306.json

Data quality

Most of these data are generated automatically and are frequently updated. Quality checks on data are not normally performed. It is possible for incorrect values to appear. Refer to information at About Latest Weather Observations and please check the disclaimer before using these data.